createdAt,value
2022-08-05T00:00:31.841Z,19.1
2022-08-05T00:10:31.872Z,18.8
2022-08-05T00:20:32.660Z,18.8
2022-08-05T00:30:33.505Z,19
2022-08-05T00:40:34.042Z,19
2022-08-05T01:00:34.558Z,18.7
2022-08-05T01:10:34.608Z,18.4
2022-08-05T01:30:35.311Z,18.2
2022-08-05T01:40:36.193Z,18
2022-08-05T02:00:37.018Z,17.7
2022-08-05T02:10:37.414Z,17.7
2022-08-05T02:20:39.020Z,17.7
2022-08-05T02:30:38.018Z,17.7
2022-08-05T03:00:39.791Z,17.7
2022-08-05T03:30:41.262Z,17.6
2022-08-05T03:40:44.983Z,17.5
2022-08-05T04:00:42.445Z,17.4
2022-08-05T04:10:43.274Z,17.4
2022-08-05T04:30:43.825Z,17.3
2022-08-05T04:40:44.500Z,17.1
2022-08-05T04:51:02.183Z,16.9
2022-08-05T05:10:47.411Z,17
2022-08-05T05:20:46.017Z,17.1
2022-08-05T05:30:49.653Z,17
2022-08-05T05:40:48.452Z,17
2022-08-05T05:50:46.881Z,17
2022-08-05T06:00:47.628Z,17.1
2022-08-05T06:10:49.256Z,17.1
2022-08-05T06:40:50.217Z,17.2
2022-08-05T06:50:51.148Z,17.2
2022-08-05T07:00:51.724Z,16.9
2022-08-05T07:10:53.775Z,16.8
2022-08-05T07:20:52.924Z,16.8
2022-08-05T07:30:55.023Z,16.8
2022-08-05T07:40:55.443Z,16.6
2022-08-05T08:00:56.201Z,16.8
2022-08-05T08:10:56.971Z,16.7
2022-08-05T08:21:00.783Z,16.7
2022-08-05T08:30:58.474Z,16.6
2022-08-05T09:11:00.409Z,16.7
2022-08-05T09:31:01.630Z,16.9
2022-08-05T09:51:02.693Z,16.9
2022-08-05T10:01:13.676Z,17
2022-08-05T10:11:03.639Z,17.1
2022-08-05T10:32:03.067Z,17.7
2022-08-05T11:01:05.919Z,18.9
2022-08-05T11:31:07.710Z,20.2
2022-08-05T11:41:14.245Z,20.1
2022-08-05T11:51:08.210Z,20.9
2022-08-05T12:01:10.498Z,21
2022-08-05T12:11:09.541Z,20.6
2022-08-05T12:21:09.767Z,20.4
2022-08-05T12:31:10.813Z,20.6
2022-08-05T12:41:12.811Z,20.6
2022-08-05T12:51:21.980Z,21.9
2022-08-05T13:01:59.563Z,22.3
2022-08-05T13:11:13.048Z,21.7
2022-08-05T13:21:13.770Z,21.2
2022-08-05T13:31:14.678Z,21
2022-08-05T13:41:14.878Z,21.4
2022-08-05T13:51:15.113Z,21.8
2022-08-05T14:01:15.329Z,21.8
2022-08-05T14:11:20.793Z,22.3
2022-08-05T14:22:07.564Z,22.8
2022-08-05T14:31:54.915Z,23.2
2022-08-05T14:41:18.841Z,22.6
2022-08-05T14:51:19.510Z,22.6
2022-08-05T15:01:22.708Z,22.4
2022-08-05T15:11:20.924Z,22.7
2022-08-05T15:21:21.841Z,23
2022-08-05T15:31:22.179Z,23.2
2022-08-05T15:41:24.271Z,23.3
2022-08-05T16:01:29.286Z,22.4
2022-08-05T16:11:40.377Z,22
2022-08-05T16:21:59.135Z,21.7
2022-08-05T16:31:26.629Z,21.7
2022-08-05T16:42:13.142Z,21.6
2022-08-05T16:51:27.365Z,21.5
2022-08-05T17:01:27.241Z,21.6
2022-08-05T17:11:27.360Z,21.9
2022-08-05T17:21:32.515Z,21.6
2022-08-05T17:31:41.229Z,21.8
2022-08-05T17:42:17.087Z,21.7
2022-08-05T17:51:30.259Z,21.2
2022-08-05T18:01:30.987Z,21
2022-08-05T18:11:33.344Z,21
2022-08-05T18:22:08.181Z,20.5
2022-08-05T18:31:35.391Z,20
2022-08-05T18:41:54.436Z,19.8
2022-08-05T18:52:03.622Z,19.4
2022-08-05T19:01:47.880Z,19.2
2022-08-05T19:11:37.027Z,18.9
2022-08-05T19:31:44.691Z,18.3
2022-08-05T20:01:37.591Z,17.6
2022-08-05T20:11:38.249Z,17.4
2022-08-05T20:21:38.490Z,17.2
2022-08-05T21:41:42.708Z,15.9
2022-08-05T22:42:05.927Z,15.2
2022-08-05T23:11:49.237Z,14.7
2022-08-05T23:31:48.628Z,14.4
2022-08-05T23:41:49.407Z,14.2
2022-08-05T23:51:52.755Z,13.9
